Time;durP1;ratioP1;P1;durP2;ratioP2;P2;SDS_P1;SDS_P2;PMS_P1;PMS_P2;Temp;Humidity;BMP_temperature;BMP_pressure;BME280_temperature;BME280_humidity;BME280_pressure;Samples;Min_cycle;Max_cycle;Signal;HPM_P1;HPM_P2
2022/04/29 00:00:54;;;;;;;9.68;3.92;;;6.20;99.90;;;;;;5040608;28;20044;-80
2022/04/29 00:03:21;;;;;;;10.07;3.80;;;6.20;99.90;;;;;;5021253;28;20036;-80
2022/04/29 00:05:47;;;;;;;9.95;3.92;;;6.20;99.90;;;;;;5040003;28;20501;-80
2022/04/29 00:08:14;;;;;;;11.63;4.00;;;6.20;99.90;;;;;;5060810;28;20045;-80
2022/04/29 00:10:41;;;;;;;12.00;4.20;;;6.10;99.90;;;;;;5057459;28;20492;-80
2022/04/29 00:13:09;;;;;;;11.40;4.25;;;6.40;99.90;;;;;;5041495;28;20047;-80
2022/04/29 00:15:35;;;;;;;11.45;4.32;;;6.10;99.90;;;;;;5058395;28;20117;-80
2022/04/29 00:18:01;;;;;;;16.08;4.40;;;7.10;99.90;;;;;;5048011;28;20063;-80
2022/04/29 00:20:27;;;;;;;12.23;3.70;;;6.70;99.90;;;;;;5057409;28;20493;-80
2022/04/29 00:22:53;;;;;;;11.18;3.90;;;6.10;99.90;;;;;;5057780;28;20040;-80
2022/04/29 00:25:19;;;;;;;10.02;3.55;;;6.10;99.90;;;;;;5038570;28;20045;-80
2022/04/29 00:27:45;;;;;;;12.68;4.47;;;6.10;99.90;;;;;;5027741;28;20441;-81
2022/04/29 00:30:12;;;;;;;12.95;3.80;;;6.10;99.90;;;;;;5028392;28;20418;-80
2022/04/29 00:32:39;;;;;;;10.35;4.15;;;6.10;99.90;;;;;;5047236;28;20402;-80
2022/04/29 00:35:08;;;;;;;13.00;4.60;;;6.10;99.90;;;;;;5054097;28;20040;-80
2022/04/29 00:37:52;;;;;;;10.73;3.90;;;6.10;99.90;;;;;;5023310;28;20064;-80
2022/04/29 00:40:21;;;;;;;10.57;3.60;;;6.10;99.90;;;;;;5044136;28;20048;-80
2022/04/29 00:42:47;;;;;;;10.20;3.72;;;6.00;99.90;;;;;;5057318;28;20263;-80
2022/04/29 00:45:14;;;;;;;10.10;3.72;;;6.80;99.90;;;;;;5041841;28;20040;-80
2022/04/29 00:47:40;;;;;;;13.10;3.85;;;6.10;99.90;;;;;;5041958;28;20071;-80
2022/04/29 00:50:07;;;;;;;9.90;3.35;;;6.90;99.90;;;;;;5055803;28;20033;-80
2022/04/29 00:52:35;;;;;;;11.35;4.20;;;6.10;99.90;;;;;;5049397;28;20036;-80
2022/04/29 00:55:06;;;;;;;12.60;3.75;;;6.10;99.90;;;;;;5041102;28;20037;-80
2022/04/29 00:57:55;;;;;;;11.07;3.80;;;6.10;99.90;;;;;;5046861;28;21388;-80
2022/04/29 01:00:22;;;;;;;11.43;4.10;;;6.10;99.90;;;;;;5041582;28;20120;-80
2022/04/29 01:02:51;;;;;;;8.85;3.60;;;7.20;99.90;;;;;;5040585;28;20559;-80
2022/04/29 01:05:20;;;;;;;10.85;3.92;;;6.10;99.90;;;;;;5060079;28;20060;-80
2022/04/29 01:07:47;;;;;;;12.60;4.47;;;6.10;99.90;;;;;;5044311;28;20051;-80
2022/04/29 01:10:14;;;;;;;10.23;3.60;;;6.20;99.90;;;;;;5042185;28;20060;-80
2022/04/29 01:12:42;;;;;;;11.27;3.97;;;6.30;99.90;;;;;;5043777;28;20401;-80
2022/04/29 01:15:13;;;;;;;10.18;3.70;;;6.00;99.90;;;;;;5035166;28;20086;-80
2022/04/29 01:17:40;;;;;;;13.93;4.68;;;6.00;99.90;;;;;;5047563;28;20228;-80
2022/04/29 01:20:08;;;;;;;10.30;4.13;;;6.00;99.90;;;;;;5056255;28;20068;-80
2022/04/29 01:22:34;;;;;;;10.95;4.35;;;6.00;99.90;;;;;;5053658;28;20072;-80
2022/04/29 01:25:01;;;;;;;10.80;4.50;;;6.00;99.90;;;;;;5030370;28;20041;-80
2022/04/29 01:27:26;;;;;;;12.88;4.25;;;6.80;99.90;;;;;;5059441;28;20041;-80
2022/04/29 01:30:07;;;;;;;12.63;4.60;;;6.00;99.90;;;;;;5055733;28;20039;-80
2022/04/29 01:32:34;;;;;;;12.02;4.35;;;6.00;99.90;;;;;;5056722;28;20036;-80
2022/04/29 01:35:00;;;;;;;10.38;4.30;;;6.50;99.90;;;;;;5056081;28;20040;-81
2022/04/29 01:37:26;;;;;;;13.77;4.43;;;6.00;99.90;;;;;;5040706;28;20082;-80
2022/04/29 01:39:52;;;;;;;11.50;4.80;;;6.00;99.90;;;;;;5054716;28;20509;-80
2022/04/29 01:42:18;;;;;;;12.13;4.68;;;6.00;99.90;;;;;;5048651;28;20036;-80
2022/04/29 01:44:45;;;;;;;12.25;4.50;;;5.90;99.90;;;;;;5038881;28;20397;-80
2022/04/29 01:47:12;;;;;;;12.15;4.95;;;5.90;99.90;;;;;;5055256;28;20409;-80
2022/04/29 01:49:37;;;;;;;12.32;4.80;;;6.00;99.90;;;;;;5027602;28;20033;-80
2022/04/29 01:52:04;;;;;;;11.77;4.75;;;5.90;99.90;;;;;;5029860;28;20066;-80
2022/04/29 01:54:30;;;;;;;13.35;4.65;;;6.00;99.90;;;;;;5042213;28;20036;-80
2022/04/29 01:56:56;;;;;;;11.35;5.00;;;6.00;99.90;;;;;;5060442;28;20029;-80
2022/04/29 01:59:21;;;;;;;10.45;4.88;;;7.00;99.90;;;;;;5054556;28;20866;-80
2022/04/29 02:01:48;;;;;;;12.05;5.30;;;6.90;99.90;;;;;;5031396;28;20054;-80
2022/04/29 02:04:14;;;;;;;12.20;5.50;;;6.00;99.90;;;;;;5048975;28;20074;-80
2022/04/29 02:06:41;;;;;;;13.63;4.72;;;6.50;99.90;;;;;;5050163;28;20462;-80
2022/04/29 02:09:07;;;;;;;11.38;4.93;;;6.00;99.90;;;;;;5027810;28;20304;-79
2022/04/29 02:11:34;;;;;;;12.13;4.90;;;6.00;99.90;;;;;;5060424;28;20035;-80
2022/04/29 02:14:01;;;;;;;12.93;4.75;;;6.10;99.90;;;;;;5048047;28;20040;-80
2022/04/29 02:16:27;;;;;;;11.63;5.25;;;6.10;99.90;;;;;;5059114;28;20509;-79
2022/04/29 02:18:52;;;;;;;12.95;5.53;;;6.00;99.90;;;;;;5041309;28;20045;-80
2022/04/29 02:21:18;;;;;;;12.05;5.13;;;6.30;99.90;;;;;;5025587;28;20070;-80
2022/04/29 02:23:44;;;;;;;14.52;5.45;;;6.00;99.90;;;;;;5027551;28;20068;-80
2022/04/29 02:26:10;;;;;;;17.00;5.50;;;6.00;99.90;;;;;;5042247;28;20094;-80
2022/04/29 02:28:36;;;;;;;11.88;4.78;;;6.00;99.90;;;;;;5050805;28;20110;-80
2022/04/29 02:31:02;;;;;;;12.63;4.90;;;6.00;99.90;;;;;;5042690;28;20465;-80
2022/04/29 02:33:28;;;;;;;11.23;5.03;;;6.00;99.90;;;;;;5048212;28;20051;-80
2022/04/29 02:35:54;;;;;;;14.38;5.35;;;6.00;99.90;;;;;;5034085;28;20166;-80
2022/04/29 02:38:21;;;;;;;12.30;5.47;;;6.40;99.90;;;;;;5041076;28;20040;-80
2022/04/29 02:40:50;;;;;;;17.38;5.63;;;7.00;99.90;;;;;;5062445;28;20045;-80
2022/04/29 02:43:17;;;;;;;11.25;5.00;;;6.10;99.90;;;;;;5054163;28;20044;-80
2022/04/29 02:45:43;;;;;;;12.32;5.10;;;6.10;99.90;;;;;;5027916;28;20134;-80
2022/04/29 02:48:09;;;;;;;10.73;5.00;;;6.10;99.90;;;;;;5045376;28;20055;-80
2022/04/29 02:50:35;;;;;;;12.23;4.97;;;6.70;99.90;;;;;;5032236;28;20032;-80
2022/04/29 02:53:01;;;;;;;14.48;5.50;;;6.10;99.90;;;;;;5050691;28;20093;-80
2022/04/29 02:55:27;;;;;;;14.90;5.13;;;6.20;99.90;;;;;;5040652;28;20055;-80
2022/04/29 02:57:53;;;;;;;10.90;5.05;;;6.20;99.90;;;;;;5050375;28;20505;-80
2022/04/29 03:00:19;;;;;;;11.60;5.43;;;6.20;99.90;;;;;;5045984;28;20043;-80
2022/04/29 03:02:44;;;;;;;12.13;5.40;;;6.20;99.90;;;;;;5040374;28;20041;-80
2022/04/29 03:05:10;;;;;;;11.55;5.40;;;6.20;99.90;;;;;;5050996;28;20191;-80
2022/04/29 03:07:36;;;;;;;16.60;5.25;;;6.20;99.90;;;;;;5024691;28;20120;-80
2022/04/29 03:10:02;;;;;;;11.73;5.40;;;6.20;99.90;;;;;;5053875;28;20517;-80
2022/04/29 03:12:28;;;;;;;12.07;5.40;;;6.20;99.90;;;;;;5037055;28;20060;-80
2022/04/29 03:15:15;;;;;;;11.77;5.57;;;6.20;99.90;;;;;;5022585;28;20134;-80
2022/04/29 03:20:23;;;;;;;13.43;6.00;;;6.30;99.90;;;;;;5045695;28;20040;-80
2022/04/29 03:22:51;;;;;;;12.30;5.50;;;6.30;99.90;;;;;;5047634;28;20037;-80
2022/04/29 03:25:16;;;;;;;11.65;4.95;;;6.40;99.90;;;;;;5039558;28;20043;-80
2022/04/29 03:27:42;;;;;;;13.70;5.45;;;6.30;99.90;;;;;;5041693;28;20033;-80
2022/04/29 03:30:09;;;;;;;14.57;5.45;;;6.30;99.90;;;;;;5047277;28;20503;-80
2022/04/29 03:32:34;;;;;;;11.63;5.38;;;6.30;99.90;;;;;;5030057;28;20071;-80
2022/04/29 03:35:00;;;;;;;10.90;5.72;;;6.30;99.90;;;;;;5043327;28;20065;-80
2022/04/29 03:37:26;;;;;;;11.70;5.43;;;6.30;99.90;;;;;;5035463;28;20063;-80
2022/04/29 03:39:53;;;;;;;13.48;6.07;;;6.60;99.90;;;;;;5032924;28;20037;-80
2022/04/29 03:42:19;;;;;;;12.50;5.85;;;6.90;99.90;;;;;;5031295;28;20037;-80
2022/04/29 03:44:45;;;;;;;12.57;5.70;;;6.80;99.90;;;;;;5044880;28;20111;-80
2022/04/29 03:47:11;;;;;;;13.38;6.25;;;6.30;99.90;;;;;;5064060;28;20156;-80
2022/04/29 03:49:37;;;;;;;14.32;5.65;;;6.70;99.90;;;;;;5039279;28;20032;-80
2022/04/29 03:52:04;;;;;;;10.63;5.00;;;6.30;99.90;;;;;;5023161;28;20090;-80
2022/04/29 03:54:30;;;;;;;19.77;6.50;;;6.30;99.90;;;;;;5024809;28;20102;-80
2022/04/29 03:56:56;;;;;;;11.85;5.93;;;6.30;99.90;;;;;;5031282;28;20044;-80
2022/04/29 03:59:22;;;;;;;11.02;5.25;;;6.30;99.90;;;;;;5041088;28;20174;-80
2022/04/29 04:01:48;;;;;;;12.73;5.38;;;6.30;99.90;;;;;;5047483;28;20051;-80
2022/04/29 04:04:14;;;;;;;12.98;5.53;;;6.30;99.90;;;;;;5042919;28;20041;-80
2022/04/29 04:06:52;;;;;;;13.60;5.95;;;6.40;99.90;;;;;;5004848;28;1134187;-80
2022/04/29 04:09:20;;;;;;;13.57;6.03;;;6.30;99.90;;;;;;5034697;28;20631;-80
2022/04/29 04:11:46;;;;;;;12.38;5.80;;;6.40;99.90;;;;;;5061007;28;20091;-80
2022/04/29 04:14:12;;;;;;;13.43;5.20;;;6.50;99.90;;;;;;5033104;28;20444;-80
2022/04/29 04:16:38;;;;;;;12.75;5.25;;;6.40;99.90;;;;;;5028660;28;20041;-80
2022/04/29 04:19:04;;;;;;;13.63;5.63;;;6.50;99.90;;;;;;5028715;28;20044;-80
2022/04/29 04:21:30;;;;;;;10.45;5.05;;;6.50;99.90;;;;;;5055102;28;20075;-81
2022/04/29 04:23:56;;;;;;;13.30;5.70;;;6.50;99.90;;;;;;5032347;28;20072;-80
2022/04/29 04:26:22;;;;;;;11.48;5.40;;;5.90;99.90;;;;;;5047986;28;20036;-80
2022/04/29 04:28:48;;;;;;;12.57;5.68;;;6.50;99.90;;;;;;5027487;28;20056;-80
2022/04/29 04:31:14;;;;;;;14.70;5.40;;;6.90;99.90;;;;;;5059272;28;20036;-81
2022/04/29 04:33:40;;;;;;;10.27;5.30;;;7.00;99.90;;;;;;5040799;28;20039;-81
2022/04/29 04:36:06;;;;;;;11.00;5.50;;;7.40;99.90;;;;;;5046707;28;20590;-80
2022/04/29 04:38:32;;;;;;;11.75;5.40;;;6.60;99.90;;;;;;5025733;28;20119;-80
2022/04/29 04:40:58;;;;;;;14.43;5.47;;;6.60;99.90;;;;;;5057679;28;20408;-80
2022/04/29 04:43:30;;;;;;;11.43;5.30;;;6.70;99.90;;;;;;5024012;28;20048;-80
2022/04/29 04:45:56;;;;;;;13.35;5.70;;;6.90;99.90;;;;;;5030673;28;20666;-80
2022/04/29 04:48:22;;;;;;;15.00;5.25;;;6.70;99.90;;;;;;5048956;28;20076;-80
2022/04/29 04:50:47;;;;;;;12.20;5.25;;;6.70;99.90;;;;;;5053589;28;20076;-80
2022/04/29 04:53:14;;;;;;;12.70;5.28;;;6.80;99.90;;;;;;5046291;28;20033;-85
2022/04/29 04:55:40;;;;;;;10.02;5.38;;;6.80;99.90;;;;;;5047708;28;20086;-86
2022/04/29 04:58:06;;;;;;;13.10;5.78;;;7.80;99.90;;;;;;5048256;28;20040;-86
2022/04/29 05:00:32;;;;;;;11.68;5.30;;;6.90;99.90;;;;;;5030778;28;20059;-86
2022/04/29 05:02:58;;;;;;;10.95;5.53;;;7.30;99.90;;;;;;5046538;28;20404;-85
2022/04/29 05:05:24;;;;;;;11.70;5.90;;;7.10;99.90;;;;;;5014669;28;20132;-84
2022/04/29 05:07:50;;;;;;;10.95;5.72;;;7.30;99.90;;;;;;5042515;28;20102;-86
2022/04/29 05:10:15;;;;;;;16.17;5.88;;;7.50;99.90;;;;;;5037082;28;20041;-86
2022/04/29 05:12:43;;;;;;;13.07;5.72;;;7.70;99.90;;;;;;5021449;28;20033;-85
2022/04/29 05:15:09;;;;;;;15.05;6.38;;;8.30;99.90;;;;;;5027902;28;20090;-86
2022/04/29 05:17:35;;;;;;;13.93;5.80;;;7.40;99.90;;;;;;5045186;28;20043;-86
2022/04/29 05:20:03;;;;;;;12.63;5.65;;;7.50;99.90;;;;;;5025246;28;20044;-85
2022/04/29 05:22:29;;;;;;;12.70;5.75;;;7.50;99.90;;;;;;5049657;28;20075;-86
2022/04/29 05:24:55;;;;;;;12.82;5.53;;;7.60;99.90;;;;;;5067396;28;20116;-86
2022/04/29 05:27:21;;;;;;;12.13;5.07;;;8.00;99.90;;;;;;5037246;28;20044;-86
2022/04/29 05:29:47;;;;;;;15.95;6.30;;;7.70;99.90;;;;;;5045129;28;20482;-86
2022/04/29 05:32:13;;;;;;;12.38;5.80;;;7.80;99.90;;;;;;5043325;28;20071;-85
2022/04/29 05:34:39;;;;;;;14.65;6.30;;;8.00;99.90;;;;;;5045936;28;20044;-85
2022/04/29 05:37:05;;;;;;;13.70;5.60;;;7.90;99.90;;;;;;5023408;28;20538;-85
2022/04/29 05:42:18;;;;;;;11.30;5.55;;;8.00;99.90;;;;;;5047582;28;20048;-86
2022/04/29 05:44:44;;;;;;;17.95;5.50;;;8.10;99.90;;;;;;5033860;28;20132;-85
2022/04/29 05:47:10;;;;;;;14.15;5.45;;;8.20;99.90;;;;;;5048130;28;20037;-86
2022/04/29 05:49:36;;;;;;;11.88;4.72;;;8.10;99.90;;;;;;5045067;28;20045;-86
2022/04/29 05:52:03;;;;;;;13.18;4.95;;;8.20;99.90;;;;;;5028035;28;20541;-85
2022/04/29 05:54:31;;;;;;;12.20;5.00;;;8.20;99.90;;;;;;5040978;28;20032;-86
2022/04/29 05:56:59;;;;;;;10.52;4.60;;;8.20;99.90;;;;;;5021556;28;20040;-85
2022/04/29 05:59:25;;;;;;;12.73;4.75;;;8.20;99.90;;;;;;5025212;28;20025;-85
2022/04/29 06:01:51;;;;;;;13.55;5.15;;;8.30;99.90;;;;;;5023908;28;20086;-86
2022/04/29 06:04:16;;;;;;;11.75;5.18;;;8.30;99.90;;;;;;5039143;28;20085;-86
2022/04/29 06:06:42;;;;;;;11.35;4.70;;;8.30;99.90;;;;;;5038036;28;20055;-83
2022/04/29 06:09:08;;;;;;;13.00;4.97;;;8.30;99.90;;;;;;5016739;28;20045;-85
2022/04/29 06:11:34;;;;;;;9.35;4.30;;;8.40;99.90;;;;;;5037572;28;20048;-84
2022/04/29 06:14:00;;;;;;;11.38;4.40;;;8.60;99.90;;;;;;5037131;28;20041;-86
2022/04/29 06:16:26;;;;;;;11.82;4.88;;;9.30;99.90;;;;;;5056530;28;20044;-87
2022/04/29 06:18:52;;;;;;;12.63;4.70;;;8.40;99.90;;;;;;5041972;28;20037;-84
2022/04/29 06:21:18;;;;;;;11.15;4.32;;;8.50;99.90;;;;;;5045973;28;20044;-84
2022/04/29 06:23:45;;;;;;;12.18;4.43;;;8.50;99.90;;;;;;5023281;28;20043;-84
2022/04/29 06:26:11;;;;;;;11.25;4.55;;;8.50;99.90;;;;;;5043816;28;20044;-85
2022/04/29 06:28:37;;;;;;;12.27;4.78;;;8.50;99.90;;;;;;5046477;28;20037;-86
2022/04/29 06:31:03;;;;;;;11.05;4.32;;;8.50;99.90;;;;;;5051921;28;20041;-85
2022/04/29 06:33:30;;;;;;;11.57;4.50;;;8.60;99.90;;;;;;5040397;28;20038;-85
2022/04/29 06:35:56;;;;;;;11.15;4.50;;;8.60;99.90;;;;;;5038682;28;20040;-87
2022/04/29 06:38:22;;;;;;;13.82;4.50;;;8.60;99.90;;;;;;5039105;28;20139;-86
2022/04/29 06:40:48;;;;;;;13.18;4.68;;;9.80;99.90;;;;;;5033863;28;20128;-86
2022/04/29 06:43:14;;;;;;;11.70;3.85;;;9.00;99.90;;;;;;5044204;28;20040;-86
2022/04/29 06:45:40;;;;;;;11.30;4.18;;;8.80;99.90;;;;;;5025406;28;20072;-84
2022/04/29 06:48:06;;;;;;;9.75;4.32;;;8.90;99.90;;;;;;5036498;28;20221;-84
2022/04/29 06:50:31;;;;;;;9.57;4.20;;;9.00;99.90;;;;;;5018006;28;20045;-84
2022/04/29 06:52:58;;;;;;;13.35;4.07;;;9.00;99.90;;;;;;5044497;28;20029;-84
2022/04/29 06:55:23;;;;;;;12.77;4.18;;;9.00;99.90;;;;;;5064446;28;20044;-85
2022/04/29 06:57:49;;;;;;;10.75;4.00;;;9.00;99.90;;;;;;5058971;28;20036;-85
2022/04/29 07:00:15;;;;;;;9.40;3.70;;;9.10;99.90;;;;;;5044669;28;20524;-85
2022/04/29 07:02:41;;;;;;;11.35;4.10;;;9.10;99.90;;;;;;5056451;28;20094;-84
2022/04/29 07:05:08;;;;;;;10.52;3.08;;;9.10;99.90;;;;;;5027606;28;20037;-83
2022/04/29 07:07:34;;;;;;;9.40;2.83;;;9.20;99.90;;;;;;5036704;28;20402;-84
2022/04/29 07:09:59;;;;;;;10.60;3.17;;;9.30;99.90;;;;;;5061816;28;20040;-84
2022/04/29 07:12:25;;;;;;;12.68;3.15;;;9.30;99.90;;;;;;5032199;28;20493;-85
2022/04/29 07:14:53;;;;;;;10.30;3.13;;;9.60;99.90;;;;;;5041065;28;21207;-84
2022/04/29 07:17:23;;;;;;;11.05;3.20;;;9.40;99.90;;;;;;5063611;28;20077;-85
2022/04/29 07:19:50;;;;;;;11.02;3.42;;;9.50;99.90;;;;;;5056654;28;20033;-85
2022/04/29 07:22:16;;;;;;;8.15;3.10;;;9.50;99.90;;;;;;5039093;28;20063;-85
2022/04/29 07:24:43;;;;;;;8.88;3.03;;;9.60;99.90;;;;;;5058112;28;20493;-86
2022/04/29 07:27:09;;;;;;;7.40;2.20;;;9.60;99.90;;;;;;5041902;28;20032;-86
2022/04/29 07:29:34;;;;;;;6.50;2.30;;;10.00;99.90;;;;;;5044252;28;20102;-84
2022/04/29 07:32:00;;;;;;;9.23;2.63;;;9.60;99.90;;;;;;5037952;28;20048;-85
2022/04/29 07:41:44;;;;;;;7.30;2.50;;;10.60;99.90;;;;;;5060967;28;20064;-84
2022/04/29 07:42:41;;;;;;;8.68;2.72;;;9.60;99.90;;;;;;5073898;28;20054;-83
2022/04/29 07:45:07;;;;;;;11.68;2.88;;;9.60;99.90;;;;;;5058740;28;20436;-86
2022/04/29 07:47:36;;;;;;;9.07;2.92;;;9.60;99.90;;;;;;5044350;28;20044;-85
2022/04/29 07:50:03;;;;;;;9.65;2.90;;;9.60;99.90;;;;;;5060926;28;20127;-85
2022/04/29 07:52:29;;;;;;;8.48;2.78;;;9.60;99.90;;;;;;5034026;28;20093;-86
2022/04/29 07:54:54;;;;;;;9.68;2.90;;;9.60;99.90;;;;;;5035270;28;20037;-83
2022/04/29 07:57:20;;;;;;;8.60;2.35;;;9.70;99.90;;;;;;5061195;28;20048;-85
2022/04/29 07:59:46;;;;;;;8.52;2.53;;;9.80;99.90;;;;;;5047892;28;20190;-84
2022/04/29 08:02:11;;;;;;;7.32;2.80;;;9.80;99.90;;;;;;5044438;28;20066;-86
2022/04/29 08:04:37;;;;;;;7.97;2.55;;;9.90;99.90;;;;;;5053855;28;20044;-84
2022/04/29 08:07:03;;;;;;;10.20;2.78;;;9.90;99.90;;;;;;5046205;28;20080;-86
2022/04/29 08:09:29;;;;;;;8.60;2.55;;;10.00;99.90;;;;;;5040343;28;20059;-84
2022/04/29 08:11:55;;;;;;;7.97;2.47;;;10.00;99.90;;;;;;5045004;28;20043;-85
2022/04/29 08:14:22;;;;;;;9.23;2.60;;;10.10;99.90;;;;;;5056567;28;20132;-85
2022/04/29 08:16:49;;;;;;;9.05;2.50;;;10.10;99.90;;;;;;5048935;28;20041;-85
2022/04/29 08:19:15;;;;;;;9.90;2.72;;;10.10;99.90;;;;;;5054359;28;20682;-83
2022/04/29 08:21:41;;;;;;;9.70;2.63;;;10.90;99.90;;;;;;5060440;28;20110;-85
2022/04/29 08:24:07;;;;;;;6.47;2.20;;;11.00;99.90;;;;;;5033276;28;20070;-85
2022/04/29 08:26:33;;;;;;;8.32;2.50;;;9.90;99.90;;;;;;5071769;28;20044;-86
2022/04/29 08:28:58;;;;;;;7.50;2.40;;;9.90;99.90;;;;;;5044082;28;20171;-85
2022/04/29 08:31:25;;;;;;;7.13;2.50;;;10.00;99.90;;;;;;5039093;28;20065;-84
2022/04/29 08:33:51;;;;;;;8.70;2.50;;;10.00;99.90;;;;;;5046965;28;20048;-85
2022/04/29 08:36:17;;;;;;;8.57;2.60;;;10.00;99.90;;;;;;5068943;28;20036;-86
2022/04/29 08:38:43;;;;;;;8.25;2.28;;;10.10;99.90;;;;;;5019015;28;20047;-85
2022/04/29 08:41:09;;;;;;;9.57;2.25;;;10.10;99.90;;;;;;5046502;28;21746;-84
2022/04/29 08:43:36;;;;;;;8.40;2.60;;;10.10;99.90;;;;;;5047727;28;20040;-84
2022/04/29 08:46:02;;;;;;;6.35;2.13;;;10.10;99.90;;;;;;5056467;28;20117;-85
2022/04/29 08:48:31;;;;;;;7.28;2.40;;;10.20;99.90;;;;;;5011703;28;20098;-86
2022/04/29 08:50:58;;;;;;;7.18;2.42;;;10.20;99.90;;;;;;5066868;28;20040;-84
2022/04/29 08:53:23;;;;;;;9.23;2.53;;;10.30;99.90;;;;;;5048166;28;20070;-85
2022/04/29 08:58:37;;;;;;;11.00;2.50;;;10.30;99.90;;;;;;5055094;28;20053;-85
2022/04/29 09:01:07;;;;;;;10.25;2.90;;;10.30;99.90;;;;;;5031719;28;20499;-85
2022/04/29 09:03:34;;;;;;;7.63;2.53;;;10.20;99.90;;;;;;5042130;28;20113;-86
2022/04/29 09:06:00;;;;;;;12.60;3.20;;;10.10;99.90;;;;;;5050496;28;20098;-84
2022/04/29 09:08:27;;;;;;;9.40;3.22;;;10.00;99.90;;;;;;5046771;28;20094;-85
2022/04/29 09:10:54;;;;;;;8.00;2.63;;;10.00;99.90;;;;;;5042758;28;20049;-83
2022/04/29 09:13:24;;;;;;;9.55;2.80;;;10.10;99.90;;;;;;5027021;28;20174;-85
2022/04/29 09:15:58;;;;;;;9.70;2.75;;;10.10;99.90;;;;;;5041874;28;20043;-84
2022/04/29 09:18:33;;;;;;;8.40;2.83;;;10.10;99.90;;;;;;5053753;28;20033;-85
2022/04/29 09:20:59;;;;;;;9.20;3.00;;;10.20;99.90;;;;;;5060433;28;20045;-86
2022/04/29 09:23:29;;;;;;;8.45;3.00;;;10.30;99.90;;;;;;5039127;28;20044;-85
2022/04/29 09:25:59;;;;;;;8.77;2.55;;;10.30;99.90;;;;;;5039866;28;20047;-85
2022/04/29 09:28:25;;;;;;;9.43;2.83;;;10.30;99.90;;;;;;5038449;28;20045;-84
2022/04/29 09:30:56;;;;;;;10.05;2.70;;;10.30;99.90;;;;;;5027013;28;20039;-85
2022/04/29 09:33:23;;;;;;;10.05;2.97;;;10.40;99.90;;;;;;5054186;28;20555;-85
2022/04/29 09:35:50;;;;;;;9.05;2.90;;;10.40;99.90;;;;;;5025671;28;20490;-86
2022/04/29 09:41:01;;;;;;;8.85;2.72;;;10.40;99.90;;;;;;5058997;28;20121;-85
2022/04/29 09:43:38;;;;;;;11.13;2.75;;;10.40;99.90;;;;;;5060404;28;20048;-84
2022/04/29 09:46:22;;;;;;;10.98;2.90;;;10.40;99.90;;;;;;5050133;28;20059;-87
2022/04/29 09:48:59;;;;;;;9.55;2.80;;;10.40;99.90;;;;;;5053530;28;20033;-85
2022/04/29 09:51:51;;;;;;;7.28;2.47;;;10.50;99.90;;;;;;5038081;28;20393;-86
2022/04/29 09:54:31;;;;;;;8.55;2.63;;;10.40;99.90;;;;;;5034362;28;20401;-85
2022/04/29 09:57:09;;;;;;;11.00;3.10;;;10.60;99.90;;;;;;5038328;28;20047;-86
2022/04/29 09:59:54;;;;;;;9.90;2.90;;;10.50;99.90;;;;;;5061769;28;20052;-85
2022/04/29 10:02:25;;;;;;;8.98;2.75;;;10.50;99.90;;;;;;5049475;28;20066;-86
2022/04/29 10:04:52;;;;;;;13.20;3.67;;;10.80;99.90;;;;;;5019206;28;20072;-85
2022/04/29 10:07:20;;;;;;;16.25;3.50;;;10.40;99.90;;;;;;5054761;28;20132;-86
2022/04/29 10:09:51;;;;;;;10.93;3.30;;;10.40;99.90;;;;;;5043619;28;20451;-86
2022/04/29 10:12:21;;;;;;;7.40;3.20;;;10.40;99.90;;;;;;5040633;28;20072;-86
2022/04/29 10:14:48;;;;;;;8.48;2.78;;;10.40;99.90;;;;;;5051016;28;20541;-86
2022/04/29 10:22:51;;;;;;;9.05;3.22;;;10.30;99.90;;;;;;5056754;28;20429;-86
2022/04/29 10:25:25;;;;;;;9.50;3.45;;;10.30;99.90;;;;;;5031856;28;20072;-86
2022/04/29 10:27:52;;;;;;;10.95;3.40;;;10.30;99.90;;;;;;5050008;28;20505;-85
2022/04/29 10:30:38;;;;;;;8.45;3.47;;;10.30;99.90;;;;;;5057709;28;20443;-86
2022/04/29 10:33:09;;;;;;;9.20;3.42;;;10.30;99.90;;;;;;5070734;28;20036;-85
2022/04/29 10:35:47;;;;;;;8.27;3.78;;;10.30;99.90;;;;;;5054633;28;20485;-85
2022/04/29 10:38:13;;;;;;;9.95;3.97;;;10.40;99.90;;;;;;5050115;28;20116;-86
2022/04/29 10:40:38;;;;;;;10.25;2.88;;;10.40;99.90;;;;;;5055005;28;20100;-86
2022/04/29 10:43:07;;;;;;;9.18;3.50;;;10.30;99.90;;;;;;5034308;28;20033;-86
2022/04/29 10:45:33;;;;;;;10.35;3.63;;;10.30;99.90;;;;;;5052962;28;20552;-86
2022/04/29 10:48:18;;;;;;;11.20;3.85;;;10.30;99.90;;;;;;5047990;28;20131;-86
2022/04/29 10:50:44;;;;;;;11.30;3.75;;;10.40;99.90;;;;;;5053263;28;20039;-85
2022/04/29 10:53:11;;;;;;;8.73;4.00;;;10.40;99.90;;;;;;5041877;28;20041;-84
2022/04/29 10:55:37;;;;;;;9.52;3.40;;;10.40;99.90;;;;;;5057586;28;20111;-84
2022/04/29 10:58:17;;;;;;;9.32;3.40;;;11.40;99.90;;;;;;5026974;28;20541;-85
2022/04/29 11:01:16;;;;;;;8.52;3.22;;;10.40;99.90;;;;;;5053844;28;20072;-84
2022/04/29 11:03:44;;;;;;;10.02;3.35;;;10.40;99.90;;;;;;5065135;28;20041;-85
2022/04/29 11:06:13;;;;;;;8.98;3.20;;;10.50;99.90;;;;;;5041609;28;20116;-85
2022/04/29 11:08:40;;;;;;;11.45;3.88;;;10.50;99.90;;;;;;5053380;28;20036;-83
2022/04/29 11:11:06;;;;;;;8.45;3.25;;;10.60;99.90;;;;;;5046489;28;20105;-85
2022/04/29 11:13:42;;;;;;;9.30;2.80;;;10.60;99.90;;;;;;5059018;28;20468;-84
2022/04/29 11:16:16;;;;;;;9.60;3.00;;;10.70;99.90;;;;;;5047004;28;20036;-86
2022/04/29 11:18:44;;;;;;;9.43;2.60;;;10.60;99.90;;;;;;5077111;28;20505;-87
2022/04/29 11:26:55;;;;;;;7.65;3.20;;;10.60;99.90;;;;;;5041110;28;20045;-84
2022/04/29 11:29:20;;;;;;;8.55;3.08;;;10.80;99.90;;;;;;5046578;28;20285;-84
2022/04/29 11:31:46;;;;;;;10.73;3.08;;;10.80;99.90;;;;;;5016843;28;20217;-85
2022/04/29 11:34:15;;;;;;;8.07;3.30;;;10.80;99.90;;;;;;5035509;28;20505;-85
2022/04/29 11:36:43;;;;;;;8.27;3.10;;;10.90;99.90;;;;;;5045329;28;20493;-86
2022/04/29 11:39:19;;;;;;;8.57;2.95;;;11.00;99.90;;;;;;5063866;28;20119;-86
2022/04/29 11:41:56;;;;;;;10.07;3.38;;;11.10;99.90;;;;;;5046668;28;20041;-84
2022/04/29 11:44:34;;;;;;;9.65;2.88;;;11.90;99.90;;;;;;5048594;28;20055;-85
2022/04/29 11:47:01;;;;;;;9.45;2.95;;;11.20;99.90;;;;;;5066393;28;20044;-85
2022/04/29 11:49:32;;;;;;;10.73;3.05;;;11.20;99.90;;;;;;5042362;28;20073;-84
2022/04/29 11:52:21;;;;;;;9.00;2.90;;;11.20;99.90;;;;;;5054302;28;20040;-85
2022/04/29 11:55:01;;;;;;;9.95;3.22;;;11.20;99.90;;;;;;5053123;28;20045;-86
2022/04/29 11:57:33;;;;;;;7.90;2.92;;;11.20;99.90;;;;;;5066394;28;20123;-86
2022/04/29 12:00:00;;;;;;;11.80;3.35;;;11.20;99.90;;;;;;5069906;28;20345;-85
2022/04/29 12:02:26;;;;;;;10.27;2.97;;;11.50;99.90;;;;;;5045209;28;20041;-86
2022/04/29 12:04:57;;;;;;;6.82;2.63;;;11.20;99.90;;;;;;5035959;28;20112;-86
2022/04/29 12:07:24;;;;;;;9.70;2.80;;;11.30;99.90;;;;;;5059429;28;20052;-86
2022/04/29 12:09:51;;;;;;;8.20;2.88;;;11.30;99.90;;;;;;5066699;28;20409;-86
2022/04/29 12:12:27;;;;;;;7.55;2.85;;;11.40;99.90;;;;;;5025847;28;20037;-85
2022/04/29 12:14:55;;;;;;;10.68;3.17;;;11.40;99.90;;;;;;5024274;28;20037;-85
2022/04/29 12:17:48;;;;;;;12.05;3.33;;;11.50;99.90;;;;;;5048269;28;20490;-85
2022/04/29 12:20:19;;;;;;;7.22;2.40;;;11.50;99.90;;;;;;5031742;28;20036;-85
2022/04/29 12:22:48;;;;;;;9.65;2.90;;;11.50;99.90;;;;;;5036761;28;20072;-85
2022/04/29 12:25:46;;;;;;;9.68;2.90;;;11.50;99.90;;;;;;5043508;28;20036;-85
2022/04/29 12:28:14;;;;;;;9.55;2.75;;;11.60;99.90;;;;;;5027189;28;20068;-84
2022/04/29 12:37:10;;;;;;;8.30;2.80;;;11.50;99.90;;;;;;5054507;28;20162;-87
2022/04/29 12:39:36;;;;;;;9.10;2.63;;;11.40;99.90;;;;;;5033514;28;20097;-86
2022/04/29 12:42:07;;;;;;;9.82;2.72;;;11.40;99.90;;;;;;5053532;28;20044;-86
2022/04/29 12:47:46;;;;;;;7.32;2.80;;;11.50;99.90;;;;;;5066102;28;20105;-86
2022/04/29 12:50:35;;;;;;;8.63;2.95;;;11.40;99.90;;;;;;5060620;28;20524;-86
2022/04/29 12:53:11;;;;;;;9.40;3.30;;;11.50;99.90;;;;;;5043551;28;20076;-87
2022/04/29 12:55:44;;;;;;;8.07;2.88;;;11.50;99.90;;;;;;5065168;28;20041;-86
2022/04/29 12:58:26;;;;;;;9.23;2.90;;;11.60;99.90;;;;;;5063456;28;20040;-86
2022/04/29 13:00:55;;;;;;;8.88;2.72;;;11.60;99.90;;;;;;5061401;28;20129;-87
2022/04/29 13:03:23;;;;;;;8.23;2.90;;;11.60;99.90;;;;;;5063167;28;20535;-84
2022/04/29 13:05:49;;;;;;;7.90;2.90;;;11.50;99.90;;;;;;5049750;28;20076;-86
2022/04/29 13:08:16;;;;;;;9.57;3.03;;;11.40;99.90;;;;;;5066621;28;20098;-86
2022/04/29 13:10:51;;;;;;;8.20;2.97;;;11.40;99.90;;;;;;5052340;28;20033;-86
2022/04/29 13:13:19;;;;;;;7.60;2.60;;;11.40;99.90;;;;;;5049004;28;20033;-87
2022/04/29 13:15:44;;;;;;;7.03;2.60;;;11.50;99.90;;;;;;5043862;28;20060;-85
2022/04/29 13:18:11;;;;;;;8.23;2.80;;;11.50;99.90;;;;;;5057080;28;20068;-85
2022/04/29 13:20:38;;;;;;;10.10;2.80;;;11.60;99.90;;;;;;5035499;28;20036;-84
2022/04/29 13:23:05;;;;;;;8.57;3.00;;;11.60;99.90;;;;;;5045435;28;20070;-85
2022/04/29 13:25:34;;;;;;;11.13;3.20;;;11.60;99.90;;;;;;5037565;28;20041;-86
2022/04/29 13:27:59;;;;;;;9.13;2.85;;;11.60;99.90;;;;;;5056707;28;20045;-84